createdAt,value
2022-08-07T00:02:36.859Z,16.17
2022-08-07T00:04:57.112Z,16.50
2022-08-07T00:07:23.630Z,16.70
2022-08-07T00:10:11.105Z,13.83
2022-08-07T00:12:57.601Z,16.23
2022-08-07T00:15:38.028Z,18.27
2022-08-07T00:18:19.658Z,18.30
2022-08-07T00:20:47.676Z,14.77
2022-08-07T00:23:14.873Z,18.93
2022-08-07T00:25:43.534Z,19.33
2022-08-07T00:28:12.539Z,21.97
2022-08-07T00:30:42.135Z,18.53
2022-08-07T00:33:08.618Z,16.73
2022-08-07T00:35:36.580Z,16.73
2022-08-07T00:38:03.815Z,19.20
2022-08-07T00:40:36.605Z,17.97
2022-08-07T00:43:09.725Z,17.70
2022-08-07T00:45:37.055Z,15.23
2022-08-07T00:48:07.838Z,15.70
2022-08-07T00:50:46.587Z,17.03
2022-08-07T00:53:18.607Z,17.20
2022-08-07T00:56:02.272Z,16.10
2022-08-07T00:58:41.054Z,15.00
2022-08-07T01:01:10.568Z,17.87
2022-08-07T01:03:55.332Z,17.30
2022-08-07T01:06:23.680Z,18.20
2022-08-07T01:08:53.398Z,15.67
2022-08-07T01:12:09.810Z,14.67
2022-08-07T01:14:09.214Z,17.47
2022-08-07T01:16:36.719Z,17.83
2022-08-07T01:19:04.948Z,17.87
2022-08-07T01:21:46.593Z,14.60
2022-08-07T01:24:14.557Z,15.17
2022-08-07T01:26:52.013Z,15.43
2022-08-07T01:29:20.260Z,15.67
2022-08-07T01:31:49.321Z,16.30
2022-08-07T01:34:18.652Z,17.63
2022-08-07T01:36:52.671Z,18.27
2022-08-07T01:39:41.444Z,17.13
2022-08-07T01:42:38.292Z,18.53
2022-08-07T01:45:01.224Z,16.47
2022-08-07T01:48:20.999Z,16.20
2022-08-07T01:50:14.411Z,19.43
2022-08-07T01:52:49.698Z,17.20
2022-08-07T01:55:42.587Z,18.00
2022-08-07T01:58:29.642Z,19.23
2022-08-07T02:01:09.985Z,17.17
2022-08-07T02:03:59.946Z,18.23
2022-08-07T02:06:32.214Z,18.17
2022-08-07T02:09:03.799Z,21.87
2022-08-07T02:12:03.482Z,20.13
2022-08-07T02:14:40.321Z,15.97
2022-08-07T02:17:07.358Z,20.07
2022-08-07T02:20:07.751Z,21.73
2022-08-07T02:22:25.716Z,19.43
2022-08-07T02:24:54.714Z,19.47
2022-08-07T02:27:23.458Z,17.37
2022-08-07T02:29:54.598Z,20.23
2022-08-07T02:32:23.155Z,21.07
2022-08-07T02:34:51.483Z,20.43
2022-08-07T02:37:19.014Z,20.10
2022-08-07T02:40:02.193Z,19.33
2022-08-07T02:42:34.231Z,24.40
2022-08-07T02:45:07.289Z,19.77
2022-08-07T02:47:49.790Z,19.00
2022-08-07T02:50:16.575Z,22.80
2022-08-07T02:52:53.129Z,19.90
2022-08-07T02:55:28.608Z,18.40
2022-08-07T02:58:12.217Z,17.50
2022-08-07T03:00:40.804Z,20.23
2022-08-07T03:03:20.972Z,16.50
2022-08-07T03:05:51.261Z,18.37
2022-08-07T03:08:26.985Z,18.30
2022-08-07T03:10:57.068Z,16.57
2022-08-07T03:13:23.790Z,22.70
2022-08-07T03:15:58.216Z,18.50
2022-08-07T03:18:34.301Z,18.63
2022-08-07T03:21:04.506Z,19.03
2022-08-07T03:23:33.904Z,18.07
2022-08-07T03:26:21.242Z,17.30
2022-08-07T03:28:50.290Z,18.07
2022-08-07T03:31:24.569Z,21.10
2022-08-07T03:34:18.288Z,15.80
2022-08-07T03:36:48.713Z,18.13
2022-08-07T03:39:16.058Z,17.30
2022-08-07T03:41:50.691Z,16.83
2022-08-07T03:44:21.805Z,16.73
2022-08-07T03:47:13.708Z,20.50
2022-08-07T03:49:42.482Z,19.30
2022-08-07T03:52:22.622Z,19.03
2022-08-07T03:54:55.013Z,16.13
2022-08-07T03:58:35.019Z,23.93
2022-08-07T04:00:12.732Z,21.63
2022-08-07T04:02:43.088Z,20.73
2022-08-07T04:05:14.075Z,18.90
2022-08-07T04:07:46.208Z,18.83
2022-08-07T04:10:15.526Z,19.43
2022-08-07T04:12:46.022Z,20.87
2022-08-07T04:15:13.829Z,18.40
2022-08-07T04:18:57.491Z,22.83
2022-08-07T04:20:29.538Z,19.33
2022-08-07T04:23:01.800Z,20.63
2022-08-07T04:25:29.173Z,20.67
2022-08-07T04:28:00.657Z,24.20
2022-08-07T04:30:44.284Z,20.67
2022-08-07T04:33:15.724Z,20.10
2022-08-07T04:35:50.545Z,19.63
2022-08-07T04:38:17.863Z,20.43
2022-08-07T04:40:52.503Z,21.97
2022-08-07T04:44:12.689Z,21.47
2022-08-07T04:46:34.523Z,20.13
2022-08-07T04:49:24.789Z,17.67
2022-08-07T04:52:19.853Z,21.00
2022-08-07T04:55:02.109Z,19.73
2022-08-07T04:58:13.817Z,22.27
2022-08-07T05:00:59.496Z,20.47
2022-08-07T05:04:07.764Z,20.80
2022-08-07T05:06:43.600Z,19.77
2022-08-07T05:09:45.346Z,17.93
2022-08-07T05:12:27.334Z,21.13
2022-08-07T05:15:21.622Z,19.57
2022-08-07T05:17:57.732Z,21.27
2022-08-07T05:20:27.491Z,18.60
2022-08-07T05:22:57.180Z,21.40
2022-08-07T05:25:25.584Z,18.90
2022-08-07T05:28:20.397Z,20.00
2022-08-07T05:30:49.881Z,21.30
2022-08-07T05:33:20.806Z,21.90
2022-08-07T05:35:49.730Z,21.43
2022-08-07T05:39:01.046Z,20.63
2022-08-07T05:41:05.521Z,22.93
2022-08-07T05:43:49.990Z,19.20
2022-08-07T05:46:27.037Z,21.17
2022-08-07T05:48:58.303Z,19.10
2022-08-07T05:51:25.776Z,19.47
2022-08-07T05:54:09.726Z,18.73
2022-08-07T05:56:47.025Z,16.83
2022-08-07T05:59:19.429Z,17.50
2022-08-07T06:01:48.551Z,14.63
2022-08-07T06:04:17.542Z,19.20
2022-08-07T06:06:46.380Z,16.33
2022-08-07T06:09:15.492Z,16.40
2022-08-07T06:11:42.473Z,18.97
2022-08-07T06:14:12.113Z,18.57
2022-08-07T06:16:50.408Z,16.53
2022-08-07T06:19:48.031Z,14.40
2022-08-07T06:22:15.281Z,17.50
2022-08-07T06:24:57.750Z,16.57
2022-08-07T06:27:44.051Z,16.53
2022-08-07T06:30:24.220Z,17.03
2022-08-07T06:32:59.074Z,13.57
2022-08-07T06:35:25.530Z,16.70
2022-08-07T06:38:08.311Z,15.67
2022-08-07T06:40:50.090Z,19.53
2022-08-07T06:43:21.379Z,17.43
2022-08-07T06:45:49.376Z,12.87
2022-08-07T06:48:15.969Z,15.03
2022-08-07T06:50:51.725Z,11.97
2022-08-07T06:55:29.757Z,13.63
2022-08-07T06:56:15.261Z,12.60
2022-08-07T07:00:13.121Z,13.27
2022-08-07T07:01:33.263Z,13.87
2022-08-07T07:04:28.514Z,14.40
2022-08-07T07:07:01.348Z,13.47
2022-08-07T07:09:31.123Z,10.30
2022-08-07T07:12:16.676Z,10.23
2022-08-07T07:15:03.730Z,10.03
2022-08-07T07:17:38.831Z,10.67
2022-08-07T07:20:28.009Z,10.37
2022-08-07T07:24:06.250Z,10.30
2022-08-07T07:26:35.731Z,15.10
2022-08-07T07:29:22.755Z,11.03
2022-08-07T07:31:44.220Z,12.27
2022-08-07T07:34:30.609Z,10.37
2022-08-07T07:37:05.605Z,12.80
2022-08-07T07:39:54.278Z,12.67
2022-08-07T07:42:32.570Z,7.80
2022-08-07T07:45:01.784Z,9.37
2022-08-07T07:47:29.259Z,12.03
2022-08-07T07:50:36.040Z,10.43
2022-08-07T07:52:46.992Z,8.93
2022-08-07T07:55:14.553Z,7.93
2022-08-07T07:57:52.477Z,7.77
2022-08-07T08:00:28.946Z,10.00
2022-08-07T08:03:01.270Z,9.33
2022-08-07T08:05:43.203Z,7.27
2022-08-07T08:08:34.720Z,6.67
2022-08-07T08:11:04.692Z,9.00
2022-08-07T08:13:33.188Z,12.87
2022-08-07T08:16:03.713Z,10.70
2022-08-07T08:18:30.981Z,8.67
2022-08-07T08:21:01.195Z,9.30
2022-08-07T08:23:49.363Z,9.67
2022-08-07T08:26:35.821Z,8.80
2022-08-07T08:29:03.596Z,9.70
2022-08-07T08:31:59.328Z,9.13
2022-08-07T08:34:26.959Z,9.13
2022-08-07T08:36:57.657Z,7.63
2022-08-07T08:39:25.582Z,7.43
2022-08-07T08:42:29.989Z,9.23
2022-08-07T08:45:13.490Z,7.77
2022-08-07T08:48:04.853Z,8.37
2022-08-07T08:50:39.536Z,8.80
2022-08-07T08:53:15.209Z,10.17
2022-08-07T08:55:53.478Z,8.97
2022-08-07T08:58:32.750Z,8.80
2022-08-07T09:01:15.774Z,8.83
2022-08-07T09:03:56.699Z,11.50
2022-08-07T09:07:02.251Z,8.70
2022-08-07T09:09:41.105Z,7.13
2022-08-07T09:12:53.034Z,9.77
2022-08-07T09:16:22.758Z,10.13
2022-08-07T09:18:58.455Z,7.60
2022-08-07T09:21:34.470Z,8.60
2022-08-07T09:24:54.069Z,9.53
2022-08-07T09:27:24.828Z,9.13
2022-08-07T09:30:06.430Z,8.60
2022-08-07T09:32:46.671Z,8.03
2022-08-07T09:36:04.243Z,7.87
2022-08-07T09:38:17.925Z,7.23
2022-08-07T09:41:06.243Z,7.43
2022-08-07T09:44:10.237Z,5.70
2022-08-07T09:47:50.260Z,9.10
2022-08-07T09:50:01.530Z,7.43
2022-08-07T09:52:41.068Z,7.88
2022-08-07T09:55:17.039Z,7.88
2022-08-07T09:58:32.426Z,16.02
2022-08-07T10:01:08.449Z,7.40
2022-08-07T10:04:28.261Z,8.63
2022-08-07T10:07:24.487Z,5.00
2022-08-07T10:10:23.063Z,7.25
2022-08-07T10:13:29.858Z,7.30
2022-08-07T10:16:10.184Z,5.97
2022-08-07T10:18:49.329Z,6.55
2022-08-07T10:22:12.388Z,5.28
2022-08-07T10:25:13.553Z,7.47
2022-08-07T10:28:08.013Z,4.97
2022-08-07T10:30:54.068Z,7.97
2022-08-07T10:34:06.652Z,5.95
2022-08-07T10:36:48.558Z,6.72
2022-08-07T10:39:25.526Z,5.82
2022-08-07T10:42:31.360Z,6.50
2022-08-07T10:45:45.248Z,7.40
2022-08-07T10:48:12.418Z,7.93
2022-08-07T10:50:50.238Z,10.87
2022-08-07T10:53:27.972Z,6.03
2022-08-07T10:56:30.925Z,6.03
2022-08-07T10:59:21.423Z,6.70
2022-08-07T11:02:11.856Z,5.77
2022-08-07T11:04:57.602Z,11.03
2022-08-07T11:07:59.535Z,5.47
2022-08-07T11:10:39.995Z,6.43
2022-08-07T11:14:46.026Z,8.33
2022-08-07T11:16:36.952Z,5.07
2022-08-07T11:19:10.229Z,4.53
2022-08-07T11:21:40.837Z,6.37
2022-08-07T11:24:20.605Z,7.33
2022-08-07T11:26:54.205Z,8.17
2022-08-07T11:29:41.926Z,6.53
2022-08-07T11:32:25.992Z,5.68
2022-08-07T11:34:58.631Z,6.65
2022-08-07T11:38:10.221Z,6.00
2022-08-07T11:40:49.922Z,5.95
2022-08-07T11:43:29.434Z,4.68
2022-08-07T11:46:36.613Z,5.15
2022-08-07T11:50:18.558Z,5.95
2022-08-07T11:52:42.795Z,4.85
2022-08-07T11:55:13.078Z,4.15
2022-08-07T11:58:33.121Z,5.47
2022-08-07T12:01:22.049Z,5.97
2022-08-07T12:04:01.098Z,5.85
2022-08-07T12:06:56.246Z,6.35
2022-08-07T12:09:46.114Z,6.43
2022-08-07T12:12:18.985Z,7.20
2022-08-07T12:14:56.117Z,5.67
2022-08-07T12:17:33.462Z,6.88
2022-08-07T12:20:10.518Z,6.82
2022-08-07T12:23:21.451Z,4.63
2022-08-07T12:26:23.461Z,5.68
2022-08-07T12:29:06.225Z,4.75
2022-08-07T12:32:02.436Z,6.03
2022-08-07T12:34:28.252Z,5.03
2022-08-07T12:36:56.089Z,11.48
2022-08-07T12:39:43.707Z,5.18
2022-08-07T12:42:13.013Z,6.25
2022-08-07T12:44:42.921Z,4.90
2022-08-07T12:47:30.792Z,6.70
2022-08-07T12:50:04.919Z,7.53
2022-08-07T12:52:36.828Z,6.50
2022-08-07T12:55:21.628Z,5.47
2022-08-07T12:58:08.033Z,5.82
2022-08-07T13:01:00.837Z,3.92
2022-08-07T13:04:31.667Z,7.32
2022-08-07T13:08:14.316Z,4.90
2022-08-07T13:10:51.799Z,5.60
2022-08-07T13:13:48.579Z,4.68
2022-08-07T13:16:37.612Z,7.40
2022-08-07T13:19:35.012Z,5.22
2022-08-07T13:22:31.149Z,4.93
2022-08-07T13:25:09.563Z,3.65
2022-08-07T13:28:11.705Z,8.15
2022-08-07T13:30:48.690Z,8.45
2022-08-07T13:34:29.916Z,4.40
2022-08-07T13:36:22.139Z,5.47
2022-08-07T13:39:49.361Z,4.73
2022-08-07T13:42:06.305Z,4.70
2022-08-07T13:44:34.561Z,5.50
2022-08-07T13:47:09.472Z,6.05
2022-08-07T13:50:32.542Z,5.88
2022-08-07T13:52:36.284Z,5.30
2022-08-07T13:55:19.375Z,6.18
2022-08-07T13:58:27.589Z,8.10
2022-08-07T14:00:59.395Z,6.38
2022-08-07T14:04:06.628Z,8.48
2022-08-07T14:06:32.189Z,7.00
2022-08-07T14:08:59.386Z,5.10
2022-08-07T14:11:53.748Z,5.32
2022-08-07T14:14:20.676Z,6.10
2022-08-07T14:16:50.078Z,5.20
2022-08-07T14:20:40.630Z,3.63
2022-08-07T14:22:34.545Z,6.43
2022-08-07T14:25:08.234Z,5.25
2022-08-07T14:28:10.309Z,5.85
2022-08-07T14:33:15.777Z,6.85
2022-08-07T14:35:55.749Z,4.95
2022-08-07T14:38:30.667Z,5.50
2022-08-07T14:41:14.733Z,4.95
2022-08-07T14:43:55.257Z,4.70
2022-08-07T14:46:31.278Z,4.82
2022-08-07T14:48:59.248Z,6.13
2022-08-07T14:52:04.591Z,6.75
2022-08-07T14:57:20.481Z,5.35
2022-08-07T15:02:39.253Z,7.35
2022-08-07T15:05:20.269Z,5.15
2022-08-07T15:07:51.006Z,5.95
2022-08-07T15:10:26.838Z,6.20
2022-08-07T15:12:58.683Z,4.88
2022-08-07T15:15:40.709Z,6.05
2022-08-07T15:18:33.905Z,6.05
2022-08-07T15:25:14.408Z,9.70
2022-08-07T15:26:44.702Z,4.07
2022-08-07T15:30:06.636Z,4.55
2022-08-07T15:32:05.001Z,9.82
2022-08-07T15:34:50.686Z,5.50
2022-08-07T15:38:04.566Z,6.38
2022-08-07T15:43:33.537Z,6.57
2022-08-07T15:46:04.510Z,5.85
2022-08-07T15:48:55.236Z,5.10
2022-08-07T15:54:21.486Z,4.07
2022-08-07T15:56:49.507Z,4.50
2022-08-07T15:59:17.319Z,7.43
2022-08-07T16:02:01.738Z,4.70
2022-08-07T16:04:31.478Z,4.53
2022-08-07T16:07:04.767Z,6.05
2022-08-07T16:09:51.968Z,9.18
2022-08-07T16:13:01.184Z,6.93
2022-08-07T16:15:58.059Z,4.95
2022-08-07T16:18:51.566Z,3.35
2022-08-07T16:22:04.079Z,5.80
2022-08-07T16:24:52.328Z,4.82
2022-08-07T16:27:25.369Z,5.68
2022-08-07T16:30:30.198Z,5.57
2022-08-07T16:32:59.148Z,5.43
2022-08-07T16:36:03.686Z,4.50
2022-08-07T16:39:01.100Z,5.37
2022-08-07T16:41:58.877Z,5.22
2022-08-07T16:45:14.968Z,5.82
2022-08-07T16:47:57.177Z,5.25
2022-08-07T16:51:20.589Z,8.35
2022-08-07T16:54:08.865Z,6.00
2022-08-07T16:56:54.763Z,4.38
2022-08-07T16:59:46.585Z,6.07
2022-08-07T17:02:55.514Z,4.22
2022-08-07T17:06:19.134Z,8.38
2022-08-07T17:09:09.837Z,5.50
2022-08-07T17:12:01.539Z,7.13
2022-08-07T17:14:43.900Z,4.80
2022-08-07T17:17:23.539Z,6.55
2022-08-07T17:20:02.735Z,10.13
2022-08-07T17:22:48.477Z,5.55
2022-08-07T17:25:19.255Z,5.30
2022-08-07T17:27:53.318Z,6.83
2022-08-07T17:30:26.701Z,6.87
2022-08-07T17:34:09.614Z,3.80
2022-08-07T17:36:03.009Z,5.23
2022-08-07T17:38:36.833Z,4.43
2022-08-07T17:42:03.475Z,4.73
2022-08-07T17:44:45.254Z,5.50
2022-08-07T17:47:43.328Z,5.97
2022-08-07T17:50:20.948Z,6.40
2022-08-07T17:53:58.261Z,7.70
2022-08-07T17:56:06.640Z,5.50
2022-08-07T17:58:56.792Z,7.57
2022-08-07T18:01:48.543Z,5.87
2022-08-07T18:04:34.568Z,4.13
2022-08-07T18:07:20.776Z,6.80
2022-08-07T18:10:06.503Z,6.80
2022-08-07T18:13:09.914Z,5.53
2022-08-07T18:15:55.800Z,8.80
2022-08-07T18:18:47.500Z,7.73
2022-08-07T18:21:53.547Z,4.93
2022-08-07T18:24:28.419Z,4.43
2022-08-07T18:27:38.828Z,8.07
2022-08-07T18:30:31.544Z,5.03
2022-08-07T18:33:24.881Z,5.13
2022-08-07T18:36:33.036Z,4.63
2022-08-07T18:40:08.819Z,5.70
2022-08-07T18:42:34.936Z,5.17
2022-08-07T18:45:42.762Z,7.73
2022-08-07T18:48:08.908Z,5.50
2022-08-07T18:50:47.544Z,4.40
2022-08-07T18:53:36.502Z,4.63
2022-08-07T18:56:31.881Z,4.93
2022-08-07T18:59:47.135Z,8.87
2022-08-07T19:02:36.352Z,5.77
2022-08-07T19:05:22.783Z,5.67
2022-08-07T19:07:57.492Z,5.90
2022-08-07T19:10:31.581Z,5.50
2022-08-07T19:13:10.277Z,6.40
2022-08-07T19:16:05.300Z,4.83
2022-08-07T19:18:49.408Z,5.73
2022-08-07T19:21:48.065Z,5.30
2022-08-07T19:24:48.768Z,6.77
2022-08-07T19:28:29.492Z,5.23
2022-08-07T19:31:03.754Z,5.20
2022-08-07T19:33:10.246Z,5.47
2022-08-07T19:35:44.133Z,5.53
2022-08-07T19:38:17.054Z,6.47
2022-08-07T19:40:50.437Z,4.77
2022-08-07T19:43:44.943Z,6.93
2022-08-07T19:46:12.397Z,5.00
2022-08-07T19:48:53.545Z,5.50
2022-08-07T19:51:24.260Z,4.57
2022-08-07T19:54:32.246Z,5.07
2022-08-07T19:58:00.427Z,5.70
2022-08-07T19:59:48.548Z,7.17
2022-08-07T20:02:23.383Z,5.37
2022-08-07T20:04:56.120Z,7.07
2022-08-07T20:07:46.554Z,4.97
2022-08-07T20:10:35.950Z,7.33
2022-08-07T20:13:15.860Z,8.57
2022-08-07T20:15:52.195Z,8.37
2022-08-07T20:18:20.605Z,7.37
2022-08-07T20:21:01.122Z,6.33
2022-08-07T20:23:43.153Z,4.47
2022-08-07T20:26:20.547Z,7.00
2022-08-07T20:28:59.345Z,6.83
2022-08-07T20:31:26.322Z,4.93
2022-08-07T20:33:56.621Z,4.97
2022-08-07T20:36:26.182Z,4.60
2022-08-07T20:39:00.515Z,6.67
2022-08-07T20:41:34.109Z,6.17
2022-08-07T20:44:05.262Z,6.43
2022-08-07T20:46:43.799Z,7.43
2022-08-07T20:49:59.424Z,6.83
2022-08-07T20:51:59.265Z,4.50
2022-08-07T20:54:29.281Z,5.17
2022-08-07T20:57:00.650Z,6.23
2022-08-07T21:00:08.179Z,7.60
2022-08-07T21:02:39.066Z,6.23
2022-08-07T21:05:16.177Z,9.27
2022-08-07T21:07:49.747Z,7.90
2022-08-07T21:10:29.497Z,8.83
2022-08-07T21:12:59.761Z,5.17
2022-08-07T21:15:58.004Z,7.30
2022-08-07T21:18:28.154Z,7.17
2022-08-07T21:20:57.096Z,7.60
2022-08-07T21:23:49.474Z,5.43
2022-08-07T21:26:42.938Z,8.73
2022-08-07T21:29:22.983Z,7.10
2022-08-07T21:32:47.010Z,5.97
2022-08-07T21:36:04.023Z,6.47
2022-08-07T21:38:17.057Z,7.43
2022-08-07T21:41:10.832Z,7.90
2022-08-07T21:43:55.907Z,8.63
2022-08-07T21:46:45.335Z,8.60
2022-08-07T21:49:17.728Z,6.47
2022-08-07T21:52:01.044Z,6.73
2022-08-07T21:54:33.658Z,6.57
2022-08-07T21:57:15.907Z,10.83
2022-08-07T22:00:23.017Z,6.80
2022-08-07T22:03:16.582Z,7.23
2022-08-07T22:05:50.041Z,9.40
2022-08-07T22:08:21.003Z,6.77
2022-08-07T22:10:51.408Z,8.83
2022-08-07T22:13:24.522Z,8.93
2022-08-07T22:16:42.410Z,10.17
2022-08-07T22:19:30.025Z,10.73
2022-08-07T22:22:21.062Z,6.63
2022-08-07T22:24:54.833Z,11.93
2022-08-07T22:27:34.135Z,6.87
2022-08-07T22:30:18.963Z,11.90
2022-08-07T22:32:45.331Z,10.23
2022-08-07T22:35:12.339Z,10.00
2022-08-07T22:38:04.151Z,13.33
2022-08-07T22:40:38.413Z,13.30
2022-08-07T22:43:34.215Z,7.97
2022-08-07T22:46:47.091Z,9.10
2022-08-07T22:49:42.801Z,7.97
2022-08-07T22:52:37.306Z,11.80
2022-08-07T22:55:39.035Z,10.83
2022-08-07T22:58:42.131Z,10.60
2022-08-07T23:01:22.473Z,9.47
2022-08-07T23:04:17.059Z,8.40
2022-08-07T23:07:03.569Z,12.53
2022-08-07T23:10:37.870Z,9.60
2022-08-07T23:13:29.538Z,12.70
2022-08-07T23:16:48.587Z,9.70
2022-08-07T23:19:57.991Z,8.07
2022-08-07T23:22:39.894Z,8.00
2022-08-07T23:25:48.411Z,8.33
2022-08-07T23:28:54.669Z,11.63
2022-08-07T23:34:23.842Z,9.20
2022-08-07T23:35:04.514Z,9.80
2022-08-07T23:38:03.945Z,10.50
2022-08-07T23:40:34.733Z,11.53
2022-08-07T23:43:20.747Z,10.87
2022-08-07T23:46:10.589Z,10.00
2022-08-07T23:48:52.256Z,9.37
2022-08-07T23:53:00.711Z,9.27
2022-08-07T23:54:20.020Z,9.80
2022-08-07T23:57:24.508Z,10.73
